Time;durP1;ratioP1;P1;durP2;ratioP2;P2;SDS_P1;SDS_P2;PMS_P1;PMS_P2;Temp;Humidity;BMP_temperature;BMP_pressure;BME280_temperature;BME280_humidity;BME280_pressure;Samples;Min_cycle;Max_cycle;Signal;HPM_P1;HPM_P2
2023/01/08 00:02:08;;;;;;;3.70;2.70;;;9.80;99.90;;;;;;4984979;28;20108;-48
2023/01/08 00:04:34;;;;;;;3.38;2.97;;;9.90;99.90;;;;;;4983645;28;20070;-49
2023/01/08 00:07:00;;;;;;;2.95;2.53;;;9.80;99.90;;;;;;4988941;28;20066;-49
2023/01/08 00:09:25;;;;;;;2.97;2.67;;;9.80;99.90;;;;;;4985822;28;20045;-48
2023/01/08 00:11:51;;;;;;;3.20;2.90;;;9.80;99.90;;;;;;4986090;28;20062;-52
2023/01/08 00:14:16;;;;;;;4.45;2.70;;;9.80;99.90;;;;;;4985675;28;20424;-48
2023/01/08 00:16:42;;;;;;;3.10;2.80;;;9.80;99.90;;;;;;4985656;28;20084;-51
2023/01/08 00:19:09;;;;;;;3.10;2.78;;;9.80;99.90;;;;;;4981842;28;20054;-50
2023/01/08 00:21:35;;;;;;;3.60;2.90;;;9.80;99.90;;;;;;4981049;28;20137;-51
2023/01/08 00:24:00;;;;;;;2.45;2.25;;;9.80;99.90;;;;;;4984135;28;20126;-49
2023/01/08 00:26:26;;;;;;;3.10;2.80;;;9.80;99.90;;;;;;4980971;28;20038;-51
2023/01/08 00:28:51;;;;;;;3.10;2.80;;;9.80;99.90;;;;;;4981525;28;20096;-48
2023/01/08 00:31:17;;;;;;;3.08;2.72;;;9.90;99.90;;;;;;4979824;28;20038;-51
2023/01/08 00:33:43;;;;;;;3.20;2.85;;;9.80;99.90;;;;;;4980840;28;20452;-48
2023/01/08 00:36:11;;;;;;;4.35;2.80;;;9.80;99.90;;;;;;4983475;28;20492;-50
2023/01/08 00:38:40;;;;;;;3.35;2.80;;;9.80;99.90;;;;;;4985450;28;20042;-48
2023/01/08 00:41:06;;;;;;;2.90;2.60;;;9.80;99.90;;;;;;4986103;28;20057;-48
2023/01/08 00:43:31;;;;;;;3.00;2.70;;;9.70;99.90;;;;;;4991243;28;20493;-48
2023/01/08 00:45:57;;;;;;;3.63;3.08;;;9.70;99.90;;;;;;4983710;28;20485;-50
2023/01/08 00:48:23;;;;;;;3.65;2.92;;;9.70;99.90;;;;;;4983271;28;20034;-52
2023/01/08 00:50:50;;;;;;;3.20;2.90;;;9.70;99.90;;;;;;4987218;28;20621;-48
2023/01/08 00:53:17;;;;;;;3.15;2.85;;;9.70;99.90;;;;;;4982973;28;20516;-51
2023/01/08 00:55:43;;;;;;;3.15;2.90;;;9.70;99.90;;;;;;4987494;28;20410;-49
2023/01/08 00:58:09;;;;;;;3.67;2.88;;;9.80;99.90;;;;;;4984692;28;20045;-49
2023/01/08 01:00:35;;;;;;;5.63;3.38;;;9.70;99.90;;;;;;4983758;28;20133;-49
2023/01/08 01:03:01;;;;;;;3.20;2.83;;;9.70;99.90;;;;;;4983838;28;20168;-50
2023/01/08 01:05:26;;;;;;;3.20;2.90;;;9.70;99.90;;;;;;4985960;28;20038;-48
2023/01/08 01:07:52;;;;;;;4.40;3.20;;;9.70;99.90;;;;;;4991197;28;20113;-48
2023/01/08 01:10:18;;;;;;;4.10;3.03;;;9.70;99.90;;;;;;4983870;28;20074;-48
2023/01/08 01:12:44;;;;;;;3.63;2.70;;;9.70;99.90;;;;;;4984295;28;20050;-49
2023/01/08 01:15:13;;;;;;;3.60;3.30;;;9.60;99.90;;;;;;4983510;28;20101;-48
2023/01/08 01:17:40;;;;;;;4.00;2.95;;;9.60;99.90;;;;;;4983327;28;20046;-48
2023/01/08 01:20:08;;;;;;;3.47;3.00;;;9.60;99.90;;;;;;4979064;28;20126;-48
2023/01/08 01:22:34;;;;;;;;;;;9.60;99.90;;;;;;4979896;28;20130;-49
2023/01/08 01:24:59;;;;;;;3.30;3.00;;;9.60;99.90;;;;;;4982069;28;20056;-48
2023/01/08 01:27:25;;;;;;;6.22;3.53;;;9.60;99.90;;;;;;4980041;28;20077;-52
2023/01/08 01:29:52;;;;;;;3.25;3.00;;;9.60;99.90;;;;;;4983334;28;20124;-48
2023/01/08 01:32:17;;;;;;;3.47;3.17;;;9.60;99.90;;;;;;4979774;28;20100;-48
2023/01/08 01:34:43;;;;;;;4.03;3.08;;;9.60;99.90;;;;;;4981001;28;20046;-48
2023/01/08 01:37:13;;;;;;;4.68;3.10;;;9.70;99.90;;;;;;4980734;28;20035;-50
2023/01/08 01:39:39;;;;;;;4.10;3.08;;;9.60;99.90;;;;;;4982973;28;20544;-49
2023/01/08 01:42:38;;;;;;;4.55;3.22;;;9.60;99.90;;;;;;4978074;28;20673;-48
2023/01/08 01:44:51;;;;;;;9.05;3.95;;;9.60;99.90;;;;;;4978664;28;20604;-50
2023/01/08 01:47:35;;;;;;;4.32;3.10;;;9.60;99.90;;;;;;4983423;28;20050;-51
2023/01/08 01:50:14;;;;;;;4.88;2.33;;;9.50;99.90;;;;;;4981104;28;20511;-50
2023/01/08 01:52:45;;;;;;;5.68;1.67;;;9.30;99.90;;;;;;4977132;28;20481;-50
2023/01/08 01:55:12;;;;;;;6.90;1.90;;;9.20;99.90;;;;;;4979068;28;20060;-51
2023/01/08 01:57:38;;;;;;;4.53;1.20;;;;;;;;;;4979767;28;20038;-50
2023/01/08 02:00:07;;;;;;;5.63;1.30;;;9.00;99.90;;;;;;4984399;28;20042;-49
2023/01/08 02:02:33;;;;;;;3.22;1.25;;;8.90;99.90;;;;;;4979419;28;20551;-50
2023/01/08 02:05:00;;;;;;;3.92;1.50;;;8.90;99.90;;;;;;4978656;28;20046;-50
2023/01/08 02:07:50;;;;;;;3.25;1.20;;;8.80;99.90;;;;;;4977548;28;20497;-52
2023/01/08 02:10:52;;;;;;;4.68;1.33;;;8.80;99.90;;;;;;4977207;28;20084;-53
2023/01/08 02:13:35;;;;;;;2.25;1.23;;;8.80;99.90;;;;;;4979479;28;20413;-49
2023/01/08 02:16:13;;;;;;;4.00;1.60;;;8.70;99.90;;;;;;4981078;28;20089;-50
2023/01/08 02:18:45;;;;;;;;;;;8.70;99.90;;;;;;4984476;28;20489;-49
2023/01/08 02:21:19;;;;;;;1.83;1.20;;;8.70;99.90;;;;;;4981046;28;21281;-50
2023/01/08 02:24:46;;;;;;;3.03;1.38;;;8.70;99.90;;;;;;4977424;28;20046;-49
2023/01/08 02:27:15;;;;;;;2.22;1.50;;;8.70;99.90;;;;;;4938827;28;20059;-50
2023/01/08 02:29:41;;;;;;;4.38;1.77;;;8.70;99.90;;;;;;4919734;28;20051;-49
2023/01/08 02:32:06;;;;;;;2.83;2.10;;;8.60;99.90;;;;;;4939875;28;20042;-50
2023/01/08 02:34:32;;;;;;;3.95;2.42;;;8.70;99.90;;;;;;4939339;28;20076;-49
2023/01/08 02:36:59;;;;;;;3.78;3.10;;;8.70;99.90;;;;;;4943428;29;20054;-49
2023/01/08 02:39:32;;;;;;;6.95;3.30;;;8.80;99.90;;;;;;4943144;29;20062;-49
2023/01/08 02:42:23;;;;;;;5.03;3.95;;;8.80;99.90;;;;;;4943542;29;20047;-48
2023/01/08 02:45:25;;;;;;;4.32;3.92;;;8.90;99.90;;;;;;4944212;29;20512;-50
2023/01/08 02:47:54;;;;;;;7.07;4.15;;;8.90;99.90;;;;;;4941858;29;20043;-49
2023/01/08 02:50:24;;;;;;;6.22;4.07;;;9.00;99.90;;;;;;4929257;29;20113;-49
2023/01/08 02:53:11;;;;;;;4.13;3.72;;;9.10;99.90;;;;;;4932046;29;20047;-49
2023/01/08 02:55:40;;;;;;;4.28;3.88;;;9.10;99.90;;;;;;4941513;29;20126;-49
2023/01/08 02:58:06;;;;;;;5.85;3.72;;;9.10;99.90;;;;;;4937563;28;20043;-49
2023/01/08 03:00:32;;;;;;;5.28;3.90;;;9.10;99.90;;;;;;4948352;29;20047;-50
2023/01/08 03:03:39;;;;;;;3.83;3.25;;;9.00;99.90;;;;;;4972900;28;20498;-49
2023/01/08 03:06:07;;;;;;;4.40;3.95;;;9.10;99.90;;;;;;4955896;28;20057;-49
2023/01/08 03:08:37;;;;;;;5.72;3.70;;;9.10;99.90;;;;;;4986408;28;20114;-49
2023/01/08 03:11:06;;;;;;;5.63;3.65;;;9.10;99.90;;;;;;4989418;28;22302;-50
2023/01/08 03:13:46;;;;;;;6.63;4.07;;;9.10;99.90;;;;;;4987650;28;20058;-50
2023/01/08 03:16:31;;;;;;;5.63;3.70;;;9.10;99.90;;;;;;4981976;28;20126;-49
2023/01/08 03:19:11;;;;;;;6.63;4.10;;;9.10;99.90;;;;;;4976249;28;20390;-48
2023/01/08 03:21:38;;;;;;;8.05;4.07;;;9.10;99.90;;;;;;4980227;28;20042;-52
2023/01/08 03:24:06;;;;;;;7.03;3.70;;;9.20;99.90;;;;;;4980355;28;20145;-50
2023/01/08 03:26:33;;;;;;;5.03;3.65;;;9.20;99.90;;;;;;4985701;28;20046;-50
2023/01/08 03:29:01;;;;;;;6.32;4.05;;;9.20;99.90;;;;;;4987642;28;20347;-49
2023/01/08 03:31:29;;;;;;;7.97;4.55;;;9.20;99.90;;;;;;4982600;28;20045;-49
2023/01/08 03:33:55;;;;;;;7.43;3.92;;;9.10;99.90;;;;;;4980391;28;20050;-49
2023/01/08 03:36:26;;;;;;;8.38;4.70;;;9.10;99.90;;;;;;5004024;28;20154;-49
2023/01/08 03:38:58;;;;;;;6.38;4.35;;;9.10;99.90;;;;;;4987788;28;20054;-50
2023/01/08 03:41:28;;;;;;;9.00;4.78;;;9.10;99.90;;;;;;4985552;28;20521;-50
2023/01/08 03:43:54;;;;;;;5.80;3.95;;;9.10;99.90;;;;;;4979132;28;20100;-49
2023/01/08 03:46:27;;;;;;;7.18;4.30;;;9.00;99.90;;;;;;4988697;28;20105;-53
2023/01/08 03:48:54;;;;;;;8.00;4.72;;;9.10;99.90;;;;;;4983133;28;20046;-50
2023/01/08 03:51:19;;;;;;;5.95;4.57;;;9.10;99.90;;;;;;4984608;28;20054;-50
2023/01/08 03:53:46;;;;;;;7.68;4.47;;;9.00;99.90;;;;;;4988489;28;20038;-49
2023/01/08 03:56:12;;;;;;;8.88;4.50;;;9.00;99.90;;;;;;4985671;28;20051;-49
2023/01/08 03:58:37;;;;;;;7.78;5.03;;;9.00;99.90;;;;;;4989071;28;20134;-49
2023/01/08 04:01:03;;;;;;;9.23;4.82;;;9.00;99.90;;;;;;4989089;28;20065;-49
2023/01/08 04:03:29;;;;;;;7.60;4.05;;;9.00;99.90;;;;;;4988400;28;20125;-50
2023/01/08 04:05:54;;;;;;;5.85;3.40;;;8.90;99.90;;;;;;4986961;28;20050;-50
2023/01/08 04:08:20;;;;;;;5.00;3.53;;;8.90;99.90;;;;;;4988889;28;20133;-49
2023/01/08 04:10:45;;;;;;;5.78;3.50;;;8.90;99.90;;;;;;4984505;28;20104;-50
2023/01/08 04:13:11;;;;;;;5.50;2.20;;;8.80;99.90;;;;;;4991199;28;20050;-49
2023/01/08 04:15:36;;;;;;;5.10;2.20;;;8.80;99.90;;;;;;4980539;28;20054;-49
2023/01/08 04:18:02;;;;;;;5.43;2.50;;;8.80;99.90;;;;;;4989769;28;20370;-50
2023/01/08 04:20:28;;;;;;;4.15;2.60;;;8.80;99.90;;;;;;4985748;28;20046;-49
2023/01/08 04:22:53;;;;;;;5.28;2.97;;;8.70;99.90;;;;;;4986715;28;20046;-50
2023/01/08 04:25:19;;;;;;;6.57;3.63;;;8.70;99.90;;;;;;4987891;28;20559;-50
2023/01/08 04:27:44;;;;;;;5.43;3.92;;;8.80;99.90;;;;;;4986276;28;20141;-49
2023/01/08 04:30:10;;;;;;;6.15;4.07;;;8.80;99.90;;;;;;4989174;28;20504;-51
2023/01/08 04:32:37;;;;;;;5.72;4.20;;;8.80;99.90;;;;;;4986867;28;20038;-51
2023/01/08 04:35:03;;;;;;;7.53;4.63;;;8.90;99.90;;;;;;4981679;28;20038;-50
2023/01/08 04:37:29;;;;;;;6.95;4.93;;;8.90;99.90;;;;;;5003419;28;20043;-54
2023/01/08 04:39:54;;;;;;;6.55;4.20;;;8.90;99.90;;;;;;4992650;28;20039;-49
2023/01/08 04:42:20;;;;;;;4.60;4.00;;;8.80;99.90;;;;;;4988930;28;20038;-49
2023/01/08 04:44:45;;;;;;;7.68;3.97;;;8.80;99.90;;;;;;4983098;28;20047;-49
2023/01/08 04:47:11;;;;;;;7.15;3.88;;;8.80;99.90;;;;;;4991315;28;20125;-49
2023/01/08 04:49:37;;;;;;;6.47;4.00;;;8.80;99.90;;;;;;4985206;28;20039;-50
2023/01/08 04:52:02;;;;;;;5.03;3.40;;;8.80;99.90;;;;;;4987224;28;20047;-50
2023/01/08 04:54:28;;;;;;;9.40;3.38;;;8.80;99.90;;;;;;4984384;28;20121;-50
2023/01/08 04:56:53;;;;;;;9.98;2.90;;;8.80;99.90;;;;;;4985641;28;20061;-49
2023/01/08 04:59:19;;;;;;;6.15;2.35;;;8.80;99.90;;;;;;4988186;28;20129;-50
2023/01/08 05:01:45;;;;;;;4.50;1.92;;;8.80;99.90;;;;;;4984882;28;20034;-49
2023/01/08 05:04:10;;;;;;;3.45;1.60;;;8.70;99.90;;;;;;4983243;28;20053;-49
2023/01/08 05:06:36;;;;;;;6.03;1.80;;;8.60;99.90;;;;;;4985361;28;20133;-49
2023/01/08 05:09:02;;;;;;;3.80;1.65;;;8.60;99.90;;;;;;4981574;28;20045;-50
2023/01/08 05:11:28;;;;;;;7.55;2.20;;;8.60;99.90;;;;;;4983842;28;20038;-50
2023/01/08 05:13:55;;;;;;;6.57;1.73;;;8.60;99.90;;;;;;4984832;28;20065;-49
2023/01/08 05:16:21;;;;;;;5.25;1.92;;;8.50;99.90;;;;;;4984351;28;20417;-49
2023/01/08 05:18:47;;;;;;;5.82;2.20;;;8.50;99.90;;;;;;4981677;28;20070;-50
2023/01/08 05:21:13;;;;;;;5.72;1.73;;;;;;;;;;4978697;28;20543;-49
2023/01/08 05:23:42;;;;;;;5.30;2.00;;;8.40;99.90;;;;;;4978883;28;20140;-51
2023/01/08 05:26:09;;;;;;;4.35;1.50;;;8.30;99.90;;;;;;4980459;28;20053;-49
2023/01/08 05:28:35;;;;;;;4.30;1.70;;;8.30;99.90;;;;;;4982063;28;20117;-50
2023/01/08 05:31:00;;;;;;;7.15;1.90;;;8.20;99.90;;;;;;4977287;28;20080;-48
2023/01/08 05:33:26;;;;;;;5.40;1.52;;;8.20;99.90;;;;;;4979249;28;20408;-48
2023/01/08 05:35:52;;;;;;;6.03;1.65;;;8.10;99.90;;;;;;4976506;28;20066;-49
2023/01/08 05:38:18;;;;;;;6.22;1.58;;;8.10;99.90;;;;;;4978008;28;20077;-48
2023/01/08 05:40:43;;;;;;;8.27;1.50;;;8.10;99.90;;;;;;4978764;28;20038;-48
2023/01/08 05:43:10;;;;;;;5.50;1.40;;;8.10;99.90;;;;;;4979668;28;21128;-48
2023/01/08 05:45:35;;;;;;;4.50;1.60;;;8.10;99.90;;;;;;4976345;28;20477;-50
2023/01/08 05:48:05;;;;;;;5.25;1.50;;;8.10;99.90;;;;;;4976947;28;20047;-48
2023/01/08 05:50:31;;;;;;;6.88;1.33;;;8.00;99.90;;;;;;4978772;28;20042;-51
2023/01/08 05:52:57;;;;;;;3.42;1.50;;;8.00;99.90;;;;;;4983394;28;20038;-49
2023/01/08 05:55:22;;;;;;;5.70;1.70;;;8.00;99.90;;;;;;4981035;28;20548;-49
2023/01/08 05:57:49;;;;;;;4.78;1.52;;;8.00;99.90;;;;;;4982106;28;20406;-49
2023/01/08 06:00:15;;;;;;;5.05;1.35;;;8.00;99.90;;;;;;4978024;28;20072;-49
2023/01/08 06:02:47;;;;;;;4.20;1.20;;;8.00;99.90;;;;;;4982891;28;20039;-48
2023/01/08 06:05:14;;;;;;;5.85;1.38;;;8.00;99.90;;;;;;4980627;28;20441;-50
2023/01/08 06:07:39;;;;;;;9.35;1.35;;;8.00;99.90;;;;;;4995828;28;20057;-49
2023/01/08 06:10:05;;;;;;;4.32;1.17;;;7.90;99.90;;;;;;4982006;28;20042;-50
2023/01/08 06:12:31;;;;;;;7.95;1.80;;;7.90;99.90;;;;;;4977870;28;20062;-50
2023/01/08 06:14:57;;;;;;;6.40;1.60;;;7.90;99.90;;;;;;4978422;28;20050;-48
2023/01/08 06:17:22;;;;;;;3.10;1.20;;;7.90;99.90;;;;;;4979596;28;20172;-48
2023/01/08 06:19:48;;;;;;;5.45;1.45;;;7.90;99.90;;;;;;4977780;28;20449;-48
2023/01/08 06:22:13;;;;;;;4.22;1.13;;;7.90;99.90;;;;;;4982113;28;20038;-47
2023/01/08 06:24:39;;;;;;;5.45;1.50;;;7.90;99.90;;;;;;4977987;28;20038;-47
2023/01/08 06:27:05;;;;;;;6.57;1.65;;;7.90;99.90;;;;;;4981084;28;20517;-47
2023/01/08 06:29:30;;;;;;;6.57;1.60;;;7.90;99.90;;;;;;4975665;28;20116;-48
2023/01/08 06:31:56;;;;;;;6.32;1.88;;;7.90;99.90;;;;;;4978321;28;20038;-49
2023/01/08 06:34:21;;;;;;;5.95;1.27;;;8.00;99.90;;;;;;4982954;28;20045;-48
2023/01/08 06:36:47;;;;;;;5.72;1.60;;;8.00;99.90;;;;;;4983725;28;20047;-48
2023/01/08 06:39:12;;;;;;;5.18;1.45;;;8.00;99.90;;;;;;4984398;28;20480;-48
2023/01/08 06:41:38;;;;;;;5.78;1.17;;;8.00;99.90;;;;;;4982947;28;20034;-51
2023/01/08 06:44:03;;;;;;;8.65;1.55;;;8.00;99.90;;;;;;4970262;28;20054;-51
2023/01/08 06:46:29;;;;;;;7.20;1.77;;;8.00;99.90;;;;;;4976176;28;20046;-50
2023/01/08 06:48:55;;;;;;;4.95;1.52;;;7.90;99.90;;;;;;4985212;28;20073;-50
2023/01/08 06:51:20;;;;;;;6.43;1.77;;;7.90;99.90;;;;;;4983679;28;20373;-52
2023/01/08 06:53:49;;;;;;;8.38;1.60;;;7.90;99.90;;;;;;4984288;28;20046;-50
2023/01/08 06:56:15;;;;;;;5.07;1.58;;;7.90;99.90;;;;;;4983311;28;20039;-50
2023/01/08 06:58:40;;;;;;;5.47;1.40;;;7.90;99.90;;;;;;4982289;28;20054;-51
2023/01/08 07:01:06;;;;;;;5.55;1.48;;;7.90;99.90;;;;;;4983068;28;20523;-50
2023/01/08 07:03:31;;;;;;;4.78;1.42;;;7.90;99.90;;;;;;4984928;28;20042;-51
2023/01/08 07:05:57;;;;;;;6.28;1.70;;;7.90;99.90;;;;;;4982969;28;20076;-51
2023/01/08 07:08:23;;;;;;;4.63;1.50;;;7.90;99.90;;;;;;4986922;28;20035;-53
2023/01/08 07:10:48;;;;;;;5.07;1.80;;;7.90;99.90;;;;;;4985068;28;20121;-50
2023/01/08 07:13:14;;;;;;;5.25;1.67;;;7.90;99.90;;;;;;4988335;28;20505;-50
2023/01/08 07:15:41;;;;;;;8.07;1.83;;;7.90;99.90;;;;;;4982194;28;20044;-50
2023/01/08 07:18:09;;;;;;;5.57;1.73;;;7.90;99.90;;;;;;4987115;28;20049;-51
2023/01/08 07:20:35;;;;;;;7.47;1.60;;;7.90;99.90;;;;;;4982119;28;20112;-52
2023/01/08 07:23:05;;;;;;;6.10;1.70;;;7.90;99.90;;;;;;4979465;28;20041;-53
2023/01/08 07:25:31;;;;;;;5.53;1.80;;;7.90;99.90;;;;;;4985415;28;20054;-50
2023/01/08 07:27:58;;;;;;;6.13;1.80;;;7.90;99.90;;;;;;4981802;28;20378;-53
2023/01/08 07:30:24;;;;;;;3.60;1.75;;;7.90;99.90;;;;;;4967528;28;20054;-53
2023/01/08 07:32:49;;;;;;;7.97;1.70;;;7.90;99.90;;;;;;4979437;28;20485;-52
2023/01/08 07:35:15;;;;;;;5.55;1.67;;;7.90;99.90;;;;;;4978658;28;21446;-49
2023/01/08 07:37:41;;;;;;;8.43;2.00;;;7.90;99.90;;;;;;4980342;28;20073;-49
2023/01/08 07:40:11;;;;;;;6.47;1.50;;;7.90;99.90;;;;;;4979056;28;20045;-49
2023/01/08 07:42:37;;;;;;;6.90;1.75;;;7.80;99.90;;;;;;4975199;28;20084;-51
2023/01/08 07:45:03;;;;;;;3.25;1.52;;;7.70;99.90;;;;;;4977958;28;20500;-50
2023/01/08 07:47:29;;;;;;;2.88;1.30;;;7.70;99.90;;;;;;4976071;28;20030;-53
2023/01/08 07:49:55;;;;;;;5.50;1.75;;;7.60;99.90;;;;;;4977516;28;20061;-50
2023/01/08 07:52:21;;;;;;;4.97;1.70;;;7.50;99.90;;;;;;4975546;28;20030;-50
2023/01/08 07:54:46;;;;;;;4.68;1.58;;;7.50;99.90;;;;;;4977993;28;20038;-51
2023/01/08 07:57:12;;;;;;;7.05;2.28;;;7.40;99.90;;;;;;4982338;28;20038;-49
2023/01/08 07:59:37;;;;;;;5.68;1.70;;;7.40;99.90;;;;;;4976099;28;20438;-51
2023/01/08 08:02:03;;;;;;;6.22;2.35;;;7.30;99.90;;;;;;4978081;28;20481;-50
2023/01/08 08:04:29;;;;;;;3.92;1.60;;;7.30;99.90;;;;;;4979145;28;20042;-51
2023/01/08 08:06:54;;;;;;;4.75;1.60;;;7.30;99.90;;;;;;4976109;28;21641;-52
2023/01/08 08:09:20;;;;;;;5.88;1.83;;;;;;;;;;4978227;28;20070;-51
2023/01/08 08:11:46;;;;;;;6.00;2.05;;;7.10;99.90;;;;;;4979751;28;20047;-50
2023/01/08 08:14:12;;;;;;;6.90;1.88;;;7.10;99.90;;;;;;4981350;28;20503;-50
2023/01/08 08:16:37;;;;;;;4.07;1.73;;;7.00;99.90;;;;;;4982177;28;20060;-50
2023/01/08 08:19:03;;;;;;;5.78;1.45;;;7.10;99.90;;;;;;4988948;28;20050;-51
2023/01/08 08:21:29;;;;;;;5.07;1.52;;;7.10;99.90;;;;;;4983318;28;20039;-53
2023/01/08 08:23:55;;;;;;;5.60;1.60;;;7.10;99.90;;;;;;4980890;28;20046;-52
2023/01/08 08:26:21;;;;;;;6.80;2.05;;;7.00;99.90;;;;;;4980687;28;20113;-50
2023/01/08 08:28:47;;;;;;;3.17;1.50;;;7.00;99.90;;;;;;4980008;28;20050;-50
2023/01/08 08:31:12;;;;;;;7.28;1.30;;;7.10;99.90;;;;;;4980117;28;20405;-52
2023/01/08 08:33:38;;;;;;;5.10;1.58;;;7.10;99.90;;;;;;4982031;28;20445;-50
2023/01/08 08:36:04;;;;;;;6.20;1.63;;;7.10;99.90;;;;;;4984909;28;20122;-51
2023/01/08 08:38:29;;;;;;;4.70;1.60;;;7.10;99.90;;;;;;4985909;28;20042;-52
2023/01/08 08:40:55;;;;;;;5.07;1.40;;;7.10;99.90;;;;;;4984473;28;20104;-50
2023/01/08 08:43:21;;;;;;;3.28;1.27;;;7.20;99.90;;;;;;4986480;28;20074;-49
2023/01/08 08:45:46;;;;;;;5.05;1.38;;;7.30;99.90;;;;;;4982680;28;20053;-50
2023/01/08 08:48:12;;;;;;;4.70;1.50;;;7.20;99.90;;;;;;4981966;28;20045;-49
2023/01/08 08:50:38;;;;;;;6.22;1.60;;;7.30;99.90;;;;;;4991812;28;20440;-49
2023/01/08 08:53:05;;;;;;;5.75;1.42;;;7.30;99.90;;;;;;4995065;28;20050;-49
2023/01/08 08:55:32;;;;;;;5.72;1.92;;;7.30;99.90;;;;;;4983934;28;20408;-49
2023/01/08 08:58:04;;;;;;;5.18;1.58;;;7.30;99.90;;;;;;4983432;28;20085;-49
2023/01/08 09:00:29;;;;;;;4.68;1.80;;;7.30;99.90;;;;;;4984153;28;20512;-50
2023/01/08 09:02:55;;;;;;;4.88;1.65;;;7.30;99.90;;;;;;4985355;28;20034;-50
2023/01/08 09:05:21;;;;;;;5.32;2.00;;;7.40;99.90;;;;;;4985794;28;20038;-50
2023/01/08 09:07:46;;;;;;;4.55;1.40;;;7.30;99.90;;;;;;4984896;28;20129;-54
2023/01/08 09:10:12;;;;;;;5.85;1.60;;;7.30;99.90;;;;;;4984673;28;20038;-50
2023/01/08 09:12:37;;;;;;;7.10;1.63;;;7.30;99.90;;;;;;4983581;28;20046;-50
2023/01/08 09:15:04;;;;;;;6.25;1.58;;;7.40;99.90;;;;;;4985714;28;20125;-52
2023/01/08 09:17:29;;;;;;;6.53;1.50;;;7.40;99.90;;;;;;4965647;28;20137;-50
2023/01/08 09:19:55;;;;;;;5.97;1.90;;;7.40;99.90;;;;;;4978154;28;20159;-49
2023/01/08 09:22:21;;;;;;;6.90;1.48;;;7.40;99.90;;;;;;4980010;28;20468;-49
2023/01/08 09:24:46;;;;;;;4.40;1.67;;;7.40;99.90;;;;;;4984661;28;20050;-50
2023/01/08 09:27:13;;;;;;;6.82;1.50;;;7.50;99.90;;;;;;4984922;28;20365;-50
2023/01/08 09:29:38;;;;;;;4.72;1.20;;;7.50;99.90;;;;;;4983363;28;20057;-51
2023/01/08 09:32:06;;;;;;;5.30;1.63;;;7.50;99.90;;;;;;4983274;28;20489;-51
2023/01/08 09:34:32;;;;;;;4.88;1.67;;;7.60;99.90;;;;;;4982885;28;20060;-49
2023/01/08 09:36:58;;;;;;;9.10;1.70;;;7.60;99.90;;;;;;4982777;28;20121;-49
2023/01/08 09:39:24;;;;;;;4.63;1.73;;;;;;;;;;4982509;28;20042;-49
2023/01/08 09:41:50;;;;;;;7.45;1.65;;;7.60;99.90;;;;;;4982072;28;20081;-50
2023/01/08 09:44:22;;;;;;;6.97;1.73;;;7.60;99.90;;;;;;4982174;28;20043;-50
2023/01/08 09:46:48;;;;;;;7.32;1.95;;;7.70;99.90;;;;;;4988142;28;20050;-49
2023/01/08 09:49:28;;;;;;;7.15;1.65;;;7.70;99.90;;;;;;4969903;28;20058;-49
2023/01/08 09:51:54;;;;;;;5.18;1.98;;;7.70;99.90;;;;;;4989034;28;20062;-51
2023/01/08 09:54:21;;;;;;;7.00;1.98;;;7.70;99.90;;;;;;4992197;28;20070;-49
2023/01/08 09:56:47;;;;;;;6.60;2.15;;;7.70;99.90;;;;;;4990823;28;20042;-49
2023/01/08 09:59:17;;;;;;;11.20;2.25;;;7.80;99.90;;;;;;4984292;28;20100;-54
2023/01/08 10:01:44;;;;;;;5.75;1.55;;;7.80;99.90;;;;;;4988448;28;20346;-50
2023/01/08 10:04:19;;;;;;;8.13;2.05;;;7.90;99.90;;;;;;4988221;28;20510;-49
2023/01/08 10:06:54;;;;;;;7.55;1.85;;;7.90;99.90;;;;;;4982162;28;20121;-50
2023/01/08 10:09:26;;;;;;;13.75;2.25;;;8.00;99.90;;;;;;4985069;28;20564;-50
2023/01/08 10:11:54;;;;;;;7.95;2.03;;;;;;;;;;4985035;28;20058;-51
2023/01/08 10:14:38;;;;;;;10.18;2.38;;;7.90;99.90;;;;;;4989149;28;20051;-50
2023/01/08 10:17:27;;;;;;;9.35;2.13;;;7.90;99.90;;;;;;4982802;28;20513;-49
2023/01/08 10:20:09;;;;;;;8.75;2.10;;;7.90;99.90;;;;;;4990203;28;20054;-49
2023/01/08 10:22:34;;;;;;;8.40;1.80;;;7.90;99.90;;;;;;4981168;28;20051;-48
2023/01/08 10:25:23;;;;;;;7.30;1.77;;;8.00;99.90;;;;;;4988938;28;20436;-50
2023/01/08 10:27:56;;;;;;;12.75;1.92;;;8.00;99.90;;;;;;4978316;28;20043;-50
2023/01/08 10:30:36;;;;;;;9.63;2.17;;;8.00;99.90;;;;;;4981303;28;20515;-49
2023/01/08 10:33:04;;;;;;;8.52;1.70;;;8.00;99.90;;;;;;4987400;28;20536;-48
2023/01/08 10:35:39;;;;;;;11.43;2.13;;;8.10;99.90;;;;;;4982618;28;20110;-49
2023/01/08 10:38:04;;;;;;;10.10;2.10;;;8.10;99.90;;;;;;4987631;28;20054;-51
2023/01/08 10:40:45;;;;;;;10.10;2.67;;;8.10;99.90;;;;;;4989571;28;20042;-49
2023/01/08 10:43:21;;;;;;;9.80;2.00;;;8.20;99.90;;;;;;4992377;28;20389;-49
2023/01/08 10:45:56;;;;;;;7.25;2.08;;;;;;;;;;4988815;28;20497;-51
2023/01/08 10:48:28;;;;;;;8.65;2.00;;;8.30;99.90;;;;;;4991321;28;20069;-48
2023/01/08 10:51:04;;;;;;;7.97;2.05;;;8.30;99.90;;;;;;4989762;28;20042;-49
2023/01/08 10:53:29;;;;;;;10.75;2.58;;;8.30;99.90;;;;;;4991453;28;20175;-48
2023/01/08 10:56:00;;;;;;;5.35;1.63;;;8.40;99.90;;;;;;4987693;28;20554;-49
2023/01/08 10:58:39;;;;;;;10.85;1.98;;;8.40;99.90;;;;;;4984654;28;20444;-49
2023/01/08 11:01:16;;;;;;;9.82;2.00;;;8.40;99.90;;;;;;4988456;28;20046;-49
2023/01/08 11:03:42;;;;;;;9.48;2.33;;;8.50;99.90;;;;;;4983115;28;20417;-49
2023/01/08 11:06:17;;;;;;;8.50;1.83;;;8.60;99.90;;;;;;4988782;28;20042;-49
2023/01/08 11:08:51;;;;;;;11.48;2.17;;;8.60;99.90;;;;;;4986507;28;20046;-49
2023/01/08 11:11:18;;;;;;;9.65;2.38;;;8.60;99.90;;;;;;4988344;28;20066;-48
2023/01/08 11:13:58;;;;;;;11.45;2.65;;;8.70;99.90;;;;;;4987630;28;20519;-50
2023/01/08 11:16:34;;;;;;;8.95;2.00;;;8.70;99.90;;;;;;4990168;28;20054;-48
2023/01/08 11:19:00;;;;;;;5.82;1.65;;;8.80;99.90;;;;;;4981508;28;20049;-53
2023/01/08 11:21:30;;;;;;;12.25;2.08;;;8.80;99.90;;;;;;4988759;28;20046;-48
2023/01/08 11:24:18;;;;;;;8.85;1.98;;;8.90;99.90;;;;;;4986849;28;20046;-50
2023/01/08 11:27:06;;;;;;;10.30;2.13;;;8.90;99.90;;;;;;4982623;28;20059;-49
2023/01/08 11:29:56;;;;;;;7.97;1.73;;;9.00;99.90;;;;;;4982761;28;20046;-49
2023/01/08 11:32:46;;;;;;;12.30;2.17;;;9.10;99.90;;;;;;4986385;28;20118;-50
2023/01/08 11:35:24;;;;;;;10.30;2.00;;;9.10;99.90;;;;;;4986757;28;20130;-50
2023/01/08 11:37:53;;;;;;;7.65;2.00;;;9.10;99.90;;;;;;4987072;28;20112;-51
2023/01/08 11:40:31;;;;;;;11.13;2.35;;;9.10;99.90;;;;;;4990592;28;20035;-49
2023/01/08 11:43:15;;;;;;;10.40;1.95;;;9.20;99.90;;;;;;4992983;28;20046;-48
2023/01/08 11:45:56;;;;;;;7.53;2.20;;;9.10;99.90;;;;;;4990057;28;20054;-49
2023/01/08 11:48:43;;;;;;;9.05;1.90;;;9.10;99.90;;;;;;4990348;28;20188;-50
2023/01/08 11:51:23;;;;;;;9.23;1.70;;;9.20;99.90;;;;;;4982644;28;20129;-49
2023/01/08 11:53:56;;;;;;;9.20;2.28;;;9.30;99.90;;;;;;4982460;28;20077;-53
2023/01/08 11:56:48;;;;;;;11.00;2.58;;;9.50;99.90;;;;;;4980998;28;20046;-49
2023/01/08 11:59:32;;;;;;;6.35;1.67;;;9.50;99.90;;;;;;4982322;28;20092;-49
2023/01/08 12:02:37;;;;;;;10.20;2.28;;;9.50;99.90;;;;;;4979341;28;20046;-51
2023/01/08 12:05:02;;;;;;;9.60;2.20;;;;;;;;;;4969345;28;20428;-49
2023/01/08 12:07:56;;;;;;;8.90;1.60;;;9.70;99.90;;;;;;4985396;28;20038;-48
2023/01/08 12:10:34;;;;;;;8.88;2.08;;;9.90;99.90;;;;;;4984886;28;20046;-50
2023/01/08 12:13:24;;;;;;;8.18;2.45;;;9.90;99.90;;;;;;4983525;28;20066;-51
2023/01/08 12:15:57;;;;;;;8.10;2.10;;;9.90;99.90;;;;;;4985848;28;20034;-52
2023/01/08 12:18:50;;;;;;;9.45;2.20;;;9.80;99.90;;;;;;4983893;28;20136;-49
2023/01/08 12:21:51;;;;;;;10.85;2.13;;;9.70;99.90;;;;;;4985589;28;20049;-49
2023/01/08 12:24:49;;;;;;;5.57;1.88;;;9.60;99.90;;;;;;4926986;29;20047;-48
2023/01/08 12:27:20;;;;;;;8.18;1.80;;;9.50;99.90;;;;;;4872462;29;20411;-51
2023/01/08 12:30:10;;;;;;;7.13;2.00;;;9.40;99.90;;;;;;4872258;29;20334;-49
2023/01/08 12:32:49;;;;;;;11.90;2.00;;;9.40;99.90;;;;;;4858204;29;20800;-49
2023/01/08 12:35:26;;;;;;;7.25;1.90;;;9.40;99.90;;;;;;4863358;29;20059;-49
2023/01/08 12:38:16;;;;;;;9.88;2.20;;;9.50;99.90;;;;;;4858735;29;20143;-48
2023/01/08 12:41:19;;;;;;;6.53;1.83;;;9.60;99.90;;;;;;4876021;29;20140;-48
2023/01/08 12:43:54;;;;;;;7.32;1.70;;;9.70;99.90;;;;;;4814776;29;20442;-48
2023/01/08 12:46:21;;;;;;;5.50;1.63;;;9.60;99.90;;;;;;4813364;29;20062;-50
2023/01/08 12:48:50;;;;;;;9.97;2.10;;;9.50;99.90;;;;;;4818456;29;20046;-49
2023/01/08 12:51:24;;;;;;;8.52;2.20;;;9.50;99.90;;;;;;4819567;29;20356;-48
2023/01/08 12:54:07;;;;;;;9.60;2.33;;;9.50;99.90;;;;;;4821532;29;20053;-49
2023/01/08 12:56:54;;;;;;;7.05;2.05;;;9.60;99.90;;;;;;4824271;29;20437;-48
2023/01/08 12:59:47;;;;;;;6.90;1.80;;;9.70;99.90;;;;;;4809238;29;20200;-48
2023/01/08 13:02:48;;;;;;;5.28;1.20;;;9.70;99.90;;;;;;4823463;29;20179;-50
2023/01/08 13:05:35;;;;;;;4.32;1.20;;;9.70;99.90;;;;;;4917085;29;20056;-48
2023/01/08 13:08:18;;;;;;;6.55;1.52;;;9.60;99.90;;;;;;4916925;29;20107;-48
2023/01/08 13:10:50;;;;;;;5.35;1.40;;;9.60;99.90;;;;;;4915922;29;20060;-49
2023/01/08 13:13:38;;;;;;;4.32;1.48;;;9.70;99.90;;;;;;4900386;29;20495;-49
2023/01/08 13:16:17;;;;;;;9.02;1.83;;;9.80;99.90;;;;;;4916130;29;20123;-48